Portada
METAR-TAF:

METAR-TAF

Aeroports :

Gabès, Tunísia

latitud: 33-53N, longitud: 010-06E, altitud: 4 m

Observació

L'informe es va fer fa 16 hores i 10 minuts, a les 15:00 UTC
Vent 6 kt del Sud-Est, variant entre Est i Sud
Temperatura 15°C
Humitat 63%
Pressió 1008 hPa
Visibilitat 10 km o més
Núvols disperses a una alçada de 2000 ft
Núvols disperses a una alçada de 3000 ft

METAR: DTTG 201500Z 14006KT 090V170 9999 SCT020 SCT030 15/08 Q1008 NOSIG

Hora: 08:10 (07:10 UTC)

Pronòstic

L'informe es va fer fa 19 hores i 0 minuts, a les 12:10 UTC
Pronòstic vàlid del 20 a les 13 UTC al 20 a les 22 UTC
Vent 8 kt del Nord/Nord-Oest
Visibilitat 10 km o més
Núvols disperses a una alçada de 2000 ft

TAF: DTTG 201210Z 2013/2022 34008KT 9999 SCT020

Observacions i pronòstics meteorològics de més de 4000 aeroports (METAR i TAF).

Les estacions disponibles són els punts grocs i vermells al mapa.

Posi el ratolí al punt desitjat per veure el nom de l'estació.

Feu clic per veure les observacions i els pronòstics meteorològics.

Per canviar el mapa: feu clic els botons verds amb una creu de color negre per apropar; al botó verd amb un guió per allunyar la imatge; o en les fletxes verdes per a mapes adjacents.


METAR-TAF: